Time;durP1;ratioP1;P1;durP2;ratioP2;P2;SDS_P1;SDS_P2;PMS_P1;PMS_P2;Temp;Humidity;BMP_temperature;BMP_pressure;BME280_temperature;BME280_humidity;BME280_pressure;Samples;Min_cycle;Max_cycle;Signal;HPM_P1;HPM_P2
2023/01/28 00:00:12;;;;;;;;;;;28.60;99.90;;;;;;5095327;28;20360;-67
2023/01/28 00:02:39;;;;;;;;;;;28.90;99.90;;;;;;5095381;28;19960;-68
2023/01/28 00:05:06;;;;;;;;;;;29.00;99.90;;;;;;5095135;28;20011;-66
2023/01/28 00:07:32;;;;;;;;;;;29.30;99.90;;;;;;5094691;28;20007;-67
2023/01/28 00:09:59;;;;;;;;;;;29.50;99.90;;;;;;5095302;28;19918;-66
2023/01/28 00:12:26;;;;;;;;;;;29.50;99.90;;;;;;5094738;28;19912;-66
2023/01/28 00:14:52;;;;;;;;;;;29.40;99.90;;;;;;5094875;28;19908;-66
2023/01/28 00:17:19;;;;;;;;;;;29.30;99.90;;;;;;5094922;28;20284;-68
2023/01/28 00:19:45;;;;;;;;;;;29.30;99.90;;;;;;5094826;28;19948;-66
2023/01/28 00:22:12;;;;;;;;;;;29.10;99.90;;;;;;5094619;28;19908;-66
2023/01/28 00:24:39;;;;;;;;;;;29.10;99.90;;;;;;5094572;28;19916;-67
2023/01/28 00:27:05;;;;;;;;;;;29.20;99.90;;;;;;5093408;28;20379;-65
2023/01/28 00:29:32;;;;;;;;;;;29.20;99.90;;;;;;5093986;28;20031;-66
2023/01/28 00:31:58;;;;;;;;;;;29.40;99.90;;;;;;5093081;28;19916;-67
2023/01/28 00:34:25;;;;;;;;;;;29.50;99.90;;;;;;5092720;28;19928;-66
2023/01/28 00:36:56;;;;;;;;;;;29.60;99.90;;;;;;5092507;28;19912;-66
2023/01/28 00:39:26;;;;;;;;;;;29.70;99.90;;;;;;5090094;28;20541;-64
2023/01/28 00:41:53;;;;;;;;;;;29.80;99.90;;;;;;5092825;28;19909;-66
2023/01/28 00:44:20;;;;;;;;;;;29.90;99.90;;;;;;5090049;28;19943;-66
2023/01/28 00:46:47;;;;;;;;;;;30.00;99.90;;;;;;5091765;28;20026;-66
2023/01/28 00:49:13;;;;;;;;;;;29.90;99.90;;;;;;5092471;28;19909;-65
2023/01/28 00:51:40;;;;;;;;;;;29.80;99.90;;;;;;5089958;28;19908;-66
2023/01/28 00:54:07;;;;;;;;;;;29.80;99.90;;;;;;5091296;28;19912;-67
2023/01/28 00:56:35;;;;;;;;;;;29.90;99.90;;;;;;5092595;28;20412;-67
2023/01/28 00:59:02;;;;;;;;;;;30.20;99.90;;;;;;5090687;28;19920;-66
2023/01/28 01:01:29;;;;;;;;;;;30.50;99.90;;;;;;5092473;28;19912;-65
2023/01/28 01:04:01;;;;;;;;;;;30.80;99.90;;;;;;5092642;28;20003;-66
2023/01/28 01:06:29;;;;;;;;;;;31.10;99.90;;;;;;5092359;28;20012;-64
2023/01/28 01:08:56;;;;;;;;;;;31.30;99.90;;;;;;5092188;28;20021;-65
2023/01/28 01:11:23;;;;;;;;;;;31.30;99.90;;;;;;5092109;28;20326;-64
2023/01/28 01:13:54;;;;;;;;;;;31.50;99.90;;;;;;5092037;28;19940;-63
2023/01/28 01:16:24;;;;;;;;;;;31.70;99.80;;;;;;5089901;28;19908;-68
2023/01/28 01:18:52;;;;;;;;;;;31.60;99.60;;;;;;5092328;28;19916;-65
2023/01/28 01:21:19;;;;;;;;;;;31.60;99.90;;;;;;5093387;28;19953;-65
2023/01/28 01:23:46;;;;;;;;;;;31.70;99.90;;;;;;5093691;28;19908;-68
2023/01/28 01:26:13;;;;;;;;;;;31.70;99.90;;;;;;5093711;28;19955;-68
2023/01/28 01:28:40;;;;;;;;;;;31.70;99.90;;;;;;5093309;28;19916;-64
2023/01/28 01:31:14;;;;;;;;;;;31.80;99.90;;;;;;5093895;28;19908;-64
2023/01/28 01:33:41;;;;;;;;;;;31.70;99.90;;;;;;5093471;28;20006;-66
2023/01/28 01:36:08;;;;;;;;;;;31.90;99.90;;;;;;5092859;28;19927;-68
2023/01/28 01:38:36;;;;;;;;;;;32.00;99.90;;;;;;5092814;28;19916;-65
2023/01/28 01:41:04;;;;;;;;;;;32.20;99.90;;;;;;5093344;28;20266;-67
2023/01/28 01:43:50;;;;;;;;;;;32.30;99.80;;;;;;5092975;28;19912;-66
2023/01/28 01:46:20;;;;;;;;;;;32.40;99.80;;;;;;5093339;28;19985;-63
2023/01/28 01:48:47;;;;;;;;;;;32.60;99.70;;;;;;5092834;28;20328;-66
2023/01/28 01:51:15;;;;;;;;;;;32.90;99.50;;;;;;5093187;28;19912;-63
2023/01/28 01:53:43;;;;;;;;;;;32.90;98.70;;;;;;5093016;28;19999;-66
2023/01/28 01:56:13;;;;;;;;;;;32.90;98.60;;;;;;5093043;28;19908;-62
2023/01/28 01:58:41;;;;;;;;;;;32.80;99.40;;;;;;5091201;28;19919;-64
2023/01/28 02:01:08;;;;;;;;;;;32.90;99.00;;;;;;5092729;28;19912;-68
2023/01/28 02:03:43;;;;;;;;;;;32.80;98.60;;;;;;5092898;28;20418;-65
2023/01/28 02:06:10;;;;;;;;;;;32.90;99.00;;;;;;5092495;28;19963;-65
2023/01/28 02:08:36;;;;;;;;;;;33.10;98.70;;;;;;5092450;28;19995;-63
2023/01/28 02:11:05;;;;;;;;;;;33.10;98.40;;;;;;5093016;28;19948;-63
2023/01/28 02:13:40;;;;;;;;;;;33.10;98.20;;;;;;5092900;28;19961;-65
2023/01/28 02:16:08;;;;;;;;;;;32.90;98.70;;;;;;5092449;28;19908;-67
2023/01/28 02:18:35;;;;;;;;;;;33.10;98.90;;;;;;5092188;28;19965;-67
2023/01/28 02:21:04;;;;;;;;;;;33.30;98.40;;;;;;5092471;28;19909;-65
2023/01/28 02:23:38;;;;;;;;;;;33.10;98.20;;;;;;5092322;28;19908;-65
2023/01/28 02:26:05;;;;;;;;;;;33.00;98.90;;;;;;5092385;28;20443;-65
2023/01/28 02:28:52;;;;;;;;;;;33.00;98.30;;;;;;5088915;28;19917;-63
2023/01/28 02:31:38;;;;;;;;;;;32.80;98.80;;;;;;5081782;28;19926;-67
2023/01/28 02:34:14;;;;;;;;;;;32.90;98.40;;;;;;5086807;28;19908;-66
2023/01/28 02:36:43;;;;;;;;;;;33.00;98.70;;;;;;5072922;28;19974;-65
2023/01/28 02:39:17;;;;;;;;;;;33.20;98.60;;;;;;5080602;28;19908;-65
2023/01/28 02:41:48;;;;;;;;;;;33.30;98.20;;;;;;5089956;28;19973;-69
2023/01/28 02:44:15;;;;;;;;;;;33.20;98.10;;;;;;5087903;28;19908;-63
2023/01/28 02:49:29;;;;;;;;;;;33.30;97.80;;;;;;5090484;28;19915;-65
2023/01/28 02:52:09;;;;;;;;;;;33.10;97.70;;;;;;5088539;28;20334;-65
2023/01/28 02:54:42;;;;;;;;;;;32.90;98.70;;;;;;5086406;28;19958;-67
2023/01/28 02:57:18;;;;;;;;;;;32.70;98.70;;;;;;5088911;28;19916;-67
2023/01/28 02:59:50;;;;;;;;;;;32.80;98.30;;;;;;5089146;28;19909;-64
2023/01/28 03:02:20;;;;;;;;;;;32.70;98.70;;;;;;5088234;28;19915;-65
2023/01/28 03:04:58;;;;;;;;;;;32.60;98.90;;;;;;5087677;28;19920;-64
2023/01/28 03:07:26;;;;;;;;;;;32.80;98.70;;;;;;5082049;28;19913;-66
2023/01/28 03:09:57;;;;;;;;;;;33.20;98.80;;;;;;5091503;28;19912;-67
2023/01/28 03:37:27;;;;;;;;;;;37.40;92.80;;;;;;5079597;28;19962;-66
2023/01/28 03:39:56;;;;;;;;;;;38.20;92.60;;;;;;5092828;28;19912;-63
2023/01/28 03:42:23;;;;;;;;;;;38.20;91.80;;;;;;5090406;28;19908;-65
2023/01/28 03:44:53;;;;;;;;;;;38.50;91.00;;;;;;5091951;28;19923;-64
2023/01/28 03:47:24;;;;;;;;;;;38.20;91.50;;;;;;5079963;28;20246;-66
2023/01/28 03:49:52;;;;;;;;;;;38.70;90.90;;;;;;5092712;28;19962;-65
2023/01/28 03:52:20;;;;;;;;;;;38.90;90.90;;;;;;5095068;28;19908;-66
2023/01/28 03:54:47;;;;;;;;;;;38.80;90.30;;;;;;5092165;28;19919;-65
2023/01/28 03:57:15;;;;;;;;;;;39.30;89.20;;;;;;5080736;28;20372;-66
2023/01/28 03:59:41;;;;;;;;;;;38.30;89.00;;;;;;5090528;28;20503;-68
2023/01/28 04:02:09;;;;;;;;;;;38.40;89.00;;;;;;5095330;28;19950;-66
2023/01/28 04:04:39;;;;;;;;;;;39.30;85.40;;;;;;5095183;28;19908;-67
2023/01/28 04:07:10;;;;;;;;;;;39.20;85.20;;;;;;5095222;28;19932;-68
2023/01/28 04:09:37;;;;;;;;;;;39.20;85.10;;;;;;5094895;28;20360;-64
2023/01/28 04:12:04;;;;;;;;;;;39.00;84.60;;;;;;5095318;28;19908;-64
2023/01/28 04:14:31;;;;;;;;;;;39.50;83.50;;;;;;5094797;28;20053;-66
2023/01/28 04:16:58;;;;;;;;;;;39.60;84.20;;;;;;5094578;28;19915;-66
2023/01/28 04:19:25;;;;;;;;;;;39.70;83.50;;;;;;5094679;28;19953;-68
2023/01/28 04:21:55;;;;;;;;;;;40.00;83.30;;;;;;5093363;28;20347;-67
2023/01/28 04:24:22;;;;;;;;;;;39.90;81.20;;;;;;5094250;28;19915;-66
2023/01/28 04:26:49;;;;;;;;;;;38.80;83.20;;;;;;5093835;28;20279;-65
2023/01/28 04:29:15;;;;;;;;;;;38.80;83.40;;;;;;5094431;28;20301;-66
2023/01/28 04:31:42;;;;;;;;;;;39.20;82.50;;;;;;5094201;28;20363;-66
2023/01/28 04:34:09;;;;;;;;;;;39.20;81.80;;;;;;5094665;28;19915;-65
2023/01/28 04:36:35;;;;;;;;;;;38.80;83.00;;;;;;5094134;28;19916;-64
2023/01/28 04:39:02;;;;;;;;;;;39.30;81.50;;;;;;5094389;28;20300;-64
2023/01/28 04:41:29;;;;;;;;;;;39.60;81.30;;;;;;5094436;28;19912;-65
2023/01/28 04:43:56;;;;;;;;;;;39.60;80.70;;;;;;5094685;28;19915;-66
2023/01/28 04:46:22;;;;;;;;;;;39.80;80.70;;;;;;5094200;28;19916;-64
2023/01/28 04:48:49;;;;;;;;;;;40.50;78.70;;;;;;5094466;28;19916;-66
2023/01/28 04:51:16;;;;;;;;;;;40.30;78.70;;;;;;5094223;28;19908;-66
2023/01/28 04:53:42;;;;;;;;;;;39.50;80.40;;;;;;5093059;28;20372;-65
2023/01/28 04:56:09;;;;;;;;;;;39.80;81.20;;;;;;5093276;28;19994;-65
2023/01/28 04:58:35;;;;;;;;;;;40.40;79.90;;;;;;5092826;28;20402;-66
2023/01/28 05:01:02;;;;;;;;;;;40.80;78.80;;;;;;5093246;28;19934;-66
2023/01/28 05:03:29;;;;;;;;;;;40.50;79.20;;;;;;5093234;28;19909;-66
2023/01/28 05:05:55;;;;;;;;;;;40.30;79.30;;;;;;5093839;28;20385;-65
2023/01/28 05:08:22;;;;;;;;;;;40.40;79.70;;;;;;5094113;28;20011;-65
2023/01/28 05:10:48;;;;;;;;;;;40.10;78.60;;;;;;5093706;28;19939;-64
2023/01/28 05:13:15;;;;;;;;;;;39.80;79.00;;;;;;5093633;28;20399;-65
2023/01/28 05:15:42;;;;;;;;;;;39.30;80.30;;;;;;5093595;28;19916;-65
2023/01/28 05:18:08;;;;;;;;;;;39.00;81.50;;;;;;5093802;28;20410;-64
2023/01/28 05:20:35;;;;;;;;;;;40.00;79.40;;;;;;5093683;28;19919;-63
2023/01/28 05:23:02;;;;;;;;;;;40.10;79.30;;;;;;5093495;28;19908;-63
2023/01/28 05:25:28;;;;;;;;;;;39.80;78.90;;;;;;5093358;28;19922;-66
2023/01/28 05:27:55;;;;;;;;;;;38.80;81.00;;;;;;5093142;28;20272;-65
2023/01/28 05:30:21;;;;;;;;;;;38.20;82.20;;;;;;5093807;28;19914;-64
2023/01/28 05:32:48;;;;;;;;;;;38.50;81.30;;;;;;5092829;28;19925;-68
2023/01/28 05:35:15;;;;;;;;;;;38.80;81.50;;;;;;5093346;28;20387;-66
2023/01/28 05:37:42;;;;;;;;;;;39.20;81.30;;;;;;5092405;28;20292;-64
2023/01/28 05:40:09;;;;;;;;;;;39.70;80.10;;;;;;5093113;28;19914;-64
2023/01/28 05:42:35;;;;;;;;;;;39.50;80.60;;;;;;5093616;28;19918;-65
2023/01/28 05:45:02;;;;;;;;;;;39.80;81.10;;;;;;5093809;28;19912;-65
2023/01/28 05:47:28;;;;;;;;;;;39.80;80.00;;;;;;5093963;28;20006;-64
2023/01/28 05:49:55;;;;;;;;;;;39.80;79.80;;;;;;5093252;28;20015;-66
2023/01/28 05:52:22;;;;;;;;;;;39.70;80.30;;;;;;5093401;28;19987;-67
2023/01/28 05:54:48;;;;;;;;;;;40.10;80.00;;;;;;5088535;28;19912;-66
2023/01/28 05:57:15;;;;;;;;;;;40.10;78.50;;;;;;5090927;28;19915;-67
2023/01/28 05:59:41;;;;;;;;;;;39.10;81.40;;;;;;5091571;28;20269;-66
2023/01/28 06:02:08;;;;;;;;;;;39.40;80.50;;;;;;5091730;28;19908;-65
2023/01/28 06:04:35;;;;;;;;;;;39.70;80.10;;;;;;5091471;28;19919;-65
2023/01/28 06:07:01;;;;;;;;;;;39.20;80.40;;;;;;5091250;28;19916;-67
2023/01/28 06:09:28;;;;;;;;;;;39.40;81.20;;;;;;5091114;28;19908;-67
2023/01/28 06:11:54;;;;;;;;;;;39.20;80.10;;;;;;5090958;28;19965;-66
2023/01/28 06:14:21;;;;;;;;;;;38.30;82.60;;;;;;5090922;28;19941;-68
2023/01/28 06:16:49;;;;;;;;;;;37.60;83.70;;;;;;5091136;28;19908;-68
2023/01/28 06:19:15;;;;;;;;;;;37.50;83.90;;;;;;5091312;28;19915;-65
2023/01/28 06:21:42;;;;;;;;;;;37.30;85.50;;;;;;5091297;28;19919;-66
2023/01/28 06:24:09;;;;;;;;;;;37.10;84.90;;;;;;5090798;28;20049;-65
2023/01/28 06:26:35;;;;;;;;;;;36.70;86.90;;;;;;5090991;28;19928;-66
2023/01/28 06:29:02;;;;;;;;;;;36.50;86.60;;;;;;5090972;28;19912;-66
2023/01/28 06:31:28;;;;;;;;;;;36.60;86.90;;;;;;5090960;28;19998;-66
2023/01/28 06:33:55;;;;;;;;;;;36.30;87.80;;;;;;5091106;28;19915;-65
2023/01/28 06:36:22;;;;;;;;;;;35.80;88.40;;;;;;5091806;28;19926;-67
2023/01/28 06:38:48;;;;;;;;;;;35.30;90.20;;;;;;5091264;28;19939;-65
2023/01/28 06:41:15;;;;;;;;;;;34.50;91.00;;;;;;5091332;28;20352;-65
2023/01/28 06:43:41;;;;;;;;;;;33.60;92.10;;;;;;5090959;28;19917;-68
2023/01/28 06:46:08;;;;;;;;;;;33.10;93.10;;;;;;5090806;28;19920;-64
2023/01/28 06:48:35;;;;;;;;;;;33.10;93.60;;;;;;5091855;28;19912;-65
2023/01/28 06:51:01;;;;;;;;;;;33.10;93.70;;;;;;5091945;28;19908;-66
2023/01/28 06:53:28;;;;;;;;;;;33.00;93.60;;;;;;5091273;28;19912;-67
2023/01/28 06:55:55;;;;;;;;;;;32.80;94.30;;;;;;5090546;28;19909;-66
2023/01/28 06:58:21;;;;;;;;;;;32.30;94.90;;;;;;5090522;28;19916;-68
2023/01/28 07:00:48;;;;;;;;;;;32.00;95.90;;;;;;5090403;28;19908;-65
2023/01/28 07:03:15;;;;;;;;;;;31.90;95.70;;;;;;5090590;28;19908;-67
2023/01/28 07:05:41;;;;;;;;;;;31.60;96.40;;;;;;5090251;28;19976;-68
2023/01/28 07:08:08;;;;;;;;;;;31.60;96.50;;;;;;5089987;28;19908;-67
2023/01/28 07:10:35;;;;;;;;;;;31.30;96.70;;;;;;5091081;28;19912;-66
2023/01/28 07:13:02;;;;;;;;;;;31.30;96.80;;;;;;5090399;28;19923;-68
2023/01/28 07:15:28;;;;;;;;;;;31.20;96.60;;;;;;5090162;28;19931;-67
2023/01/28 07:17:55;;;;;;;;;;;31.00;97.10;;;;;;5090524;28;19915;-65
2023/01/28 07:20:22;;;;;;;;;;;30.80;97.30;;;;;;5090217;28;19923;-66
2023/01/28 07:22:48;;;;;;;;;;;30.50;97.50;;;;;;5090041;28;19908;-66
2023/01/28 07:25:15;;;;;;;;;;;30.40;97.90;;;;;;5090637;28;20284;-65
2023/01/28 07:27:49;;;;;;;;;;;30.10;98.20;;;;;;5090407;28;20370;-65
2023/01/28 07:30:16;;;;;;;;;;;30.10;98.20;;;;;;5090455;28;19950;-67
2023/01/28 07:32:43;;;;;;;;;;;30.00;99.10;;;;;;5091609;28;19908;-66
2023/01/28 07:35:09;;;;;;;;;;;30.00;99.20;;;;;;5091031;28;20532;-67
2023/01/28 07:37:36;;;;;;;;;;;29.80;99.50;;;;;;5091831;28;20001;-67
2023/01/28 07:40:03;;;;;;;;;;;29.70;99.70;;;;;;5092245;28;20368;-67
2023/01/28 07:42:29;;;;;;;;;;;29.50;99.90;;;;;;5091556;28;20296;-68
2023/01/28 07:44:56;;;;;;;;;;;29.50;99.90;;;;;;5086863;28;19966;-68
2023/01/28 07:47:23;;;;;;;;;;;29.50;99.90;;;;;;5086615;28;19908;-67
2023/01/28 07:49:49;;;;;;;;;;;29.40;99.90;;;;;;5090168;28;19967;-69
2023/01/28 07:52:16;;;;;;;;;;;29.30;99.90;;;;;;5090844;28;19908;-68
2023/01/28 07:54:42;;;;;;;;;;;29.20;99.90;;;;;;5089897;28;19963;-69
2023/01/28 07:57:09;;;;;;;;;;;29.20;99.90;;;;;;5084912;28;20280;-68
2023/01/28 07:59:37;;;;;;;;;;;29.10;99.90;;;;;;5077599;28;20387;-67
2023/01/28 08:02:04;;;;;;;;;;;29.00;99.90;;;;;;5094751;28;20007;-69
2023/01/28 08:04:31;;;;;;;;;;;29.10;99.90;;;;;;5093221;28;20007;-70
2023/01/28 08:06:57;;;;;;;;;;;29.00;99.90;;;;;;5090378;28;19916;-69
2023/01/28 08:09:24;;;;;;;;;;;28.90;99.90;;;;;;5077111;28;19977;-68
2023/01/28 08:11:51;;;;;;;;;;;28.80;99.90;;;;;;5094670;28;19908;-69
2023/01/28 08:14:18;;;;;;;;;;;28.80;99.90;;;;;;5092702;28;19967;-69
2023/01/28 08:16:44;;;;;;;;;;;28.60;99.90;;;;;;5091624;28;19919;-69
2023/01/28 08:19:11;;;;;;;;;;;28.50;99.90;;;;;;5074179;28;19919;-67
2023/01/28 08:21:38;;;;;;;;;;;28.50;99.90;;;;;;5074489;28;20007;-69
2023/01/28 08:24:05;;;;;;;;;;;28.40;99.90;;;;;;5074018;28;20057;-69
2023/01/28 08:26:31;;;;;;;;;;;28.30;99.90;;;;;;5092352;28;20288;-68
2023/01/28 08:28:58;;;;;;;;;;;28.20;99.90;;;;;;5073982;28;19908;-69
2023/01/28 08:31:24;;;;;;;;;;;28.10;99.90;;;;;;5092051;28;19912;-69
2023/01/28 08:33:51;;;;;;;;;;;28.10;99.90;;;;;;5094398;28;19915;-69
2023/01/28 08:36:18;;;;;;;;;;;28.10;99.90;;;;;;5091142;28;19927;-70
2023/01/28 08:38:44;;;;;;;;;;;28.10;99.90;;;;;;5074223;28;19934;-67
2023/01/28 08:41:11;;;;;;;;;;;28.00;99.90;;;;;;5089208;28;19916;-69
2023/01/28 08:43:37;;;;;;;;;;;27.90;99.90;;;;;;5092860;28;19908;-71
2023/01/28 08:46:06;;;;;;;;;;;27.80;99.90;;;;;;5088610;28;20300;-68
2023/01/28 08:48:32;;;;;;;;;;;27.80;99.90;;;;;;5075774;28;19914;-67
2023/01/28 08:50:59;;;;;;;;;;;27.80;99.90;;;;;;5086827;28;19915;-68
2023/01/28 08:53:25;;;;;;;;;;;27.70;99.90;;;;;;5093591;28;19912;-68
2023/01/28 08:55:53;;;;;;;;;;;27.60;99.90;;;;;;5091250;28;19912;-68
2023/01/28 08:58:19;;;;;;;;;;;27.50;99.90;;;;;;5076853;28;19957;-69
2023/01/28 09:00:47;;;;;;;;;;;27.40;99.90;;;;;;5083505;28;20308;-66
2023/01/28 09:03:14;;;;;;;;;;;27.30;99.90;;;;;;5093456;28;19908;-67
2023/01/28 09:05:40;;;;;;;;;;;27.30;99.90;;;;;;5088806;28;19924;-69
2023/01/28 09:08:08;;;;;;;;;;;27.20;99.90;;;;;;5078646;28;19908;-67
2023/01/28 09:10:36;;;;;;;;;;;27.10;99.90;;;;;;5081705;28;20007;-69
2023/01/28 09:13:07;;;;;;;;;;;27.00;99.90;;;;;;5093131;28;19915;-69
2023/01/28 09:15:34;;;;;;;;;;;27.00;99.90;;;;;;5081407;28;19916;-68
2023/01/28 09:18:00;;;;;;;;;;;26.90;99.90;;;;;;5079415;28;20258;-69
2023/01/28 09:20:27;;;;;;;;;;;26.90;99.90;;;;;;5087504;28;19919;-67
2023/01/28 09:22:54;;;;;;;;;;;26.90;99.90;;;;;;5092242;28;19962;-68
2023/01/28 09:25:20;;;;;;;;;;;26.90;99.90;;;;;;5083986;28;20300;-70
2023/01/28 09:27:47;;;;;;;;;;;26.90;99.90;;;;;;5091807;28;19912;-68
2023/01/28 09:30:14;;;;;;;;;;;26.90;99.90;;;;;;5078129;28;19953;-69
2023/01/28 09:32:41;;;;;;;;;;;26.80;99.90;;;;;;5093219;28;20290;-69
2023/01/28 09:35:07;;;;;;;;;;;26.70;99.90;;;;;;5082847;28;19921;-68
2023/01/28 09:37:34;;;;;;;;;;;26.70;99.90;;;;;;5091633;28;19919;-69
2023/01/28 09:40:01;;;;;;;;;;;26.70;99.90;;;;;;5091633;28;19909;-70
2023/01/28 09:42:28;;;;;;;;;;;26.70;99.90;;;;;;5091636;28;20332;-67
2023/01/28 09:45:07;;;;;;;;;;;26.70;99.90;;;;;;5092114;28;19908;-69
2023/01/28 09:47:41;;;;;;;;;;;26.60;99.90;;;;;;5091096;28;19912;-69
2023/01/28 09:50:11;;;;;;;;;;;26.60;99.90;;;;;;5091982;28;20050;-70
2023/01/28 09:52:39;;;;;;;;;;;26.50;99.90;;;;;;5092260;28;19908;-68
2023/01/28 09:55:11;;;;;;;;;;;26.40;99.90;;;;;;5093154;28;19949;-69
2023/01/28 09:57:44;;;;;;;;;;;26.40;99.90;;;;;;5089184;28;19912;-69
2023/01/28 10:00:18;;;;;;;;;;;26.50;99.90;;;;;;5088571;28;19912;-68
2023/01/28 10:02:54;;;;;;;;;;;26.50;99.90;;;;;;5091441;28;19915;-67
2023/01/28 10:05:24;;;;;;;;;;;26.50;99.90;;;;;;5090166;28;19916;-68
2023/01/28 10:08:08;;;;;;;;;;;26.50;99.90;;;;;;5091469;28;20357;-69
2023/01/28 10:10:40;;;;;;;;;;;26.40;99.90;;;;;;5088750;28;19923;-69
2023/01/28 10:13:15;;;;;;;;;;;26.50;99.90;;;;;;5091314;28;19912;-69
2023/01/28 10:15:41;;;;;;;;;;;26.50;99.90;;;;;;5091054;28;20384;-69
2023/01/28 10:18:09;;;;;;;;;;;26.40;99.90;;;;;;5090789;28;19908;-68
2023/01/28 10:20:39;;;;;;;;;;;26.40;99.90;;;;;;5086906;28;19946;-69
2023/01/28 10:23:19;;;;;;;;;;;26.40;99.90;;;;;;5090077;28;19920;-68
2023/01/28 10:25:49;;;;;;;;;;;26.40;99.90;;;;;;5091142;28;19935;-69
2023/01/28 10:28:19;;;;;;;;;;;26.40;99.90;;;;;;5078757;28;19955;-68
2023/01/28 10:30:46;;;;;;;;;;;26.40;99.90;;;;;;5078257;28;19912;-69
2023/01/28 10:33:19;;;;;;;;;;;26.40;99.90;;;;;;5091264;28;19912;-69
2023/01/28 10:35:47;;;;;;;;;;;26.40;99.90;;;;;;5091968;28;20307;-69
2023/01/28 10:38:15;;;;;;;;;;;26.30;99.90;;;;;;5079787;28;19919;-69
2023/01/28 10:40:42;;;;;;;;;;;26.40;99.90;;;;;;5077775;28;19955;-69
2023/01/28 10:43:09;;;;;;;;;;;26.40;99.90;;;;;;5092565;28;20245;-68
2023/01/28 10:45:39;;;;;;;;;;;26.40;99.90;;;;;;5095448;28;19915;-68
2023/01/28 10:48:06;;;;;;;;;;;26.40;99.90;;;;;;5089023;28;19966;-67
2023/01/28 10:50:34;;;;;;;;;;;26.40;99.90;;;;;;5074871;28;19912;-68
2023/01/28 10:53:02;;;;;;;;;;;26.30;99.90;;;;;;5091753;28;20372;-68
2023/01/28 10:55:35;;;;;;;;;;;26.30;99.90;;;;;;5091734;28;19951;-68
2023/01/28 10:58:04;;;;;;;;;;;26.40;99.90;;;;;;5080346;28;19909;-69
2023/01/28 11:00:36;;;;;;;;;;;26.40;99.90;;;;;;5072389;28;19919;-69
2023/01/28 11:03:03;;;;;;;;;;;26.30;99.90;;;;;;5090294;28;20353;-67
2023/01/28 11:05:30;;;;;;;;;;;26.30;99.90;;;;;;5090324;28;20319;-68
2023/01/28 11:08:12;;;;;;;;;;;26.30;99.90;;;;;;5080775;28;19918;-69
2023/01/28 11:10:39;;;;;;;;;;;26.30;99.90;;;;;;5073996;28;20011;-68
2023/01/28 11:13:06;;;;;;;;;;;26.20;99.90;;;;;;5090288;28;20010;-66
2023/01/28 11:15:33;;;;;;;;;;;26.20;99.90;;;;;;5090420;28;20403;-69
2023/01/28 11:18:02;;;;;;;;;;;26.20;99.90;;;;;;5090698;28;19923;-67
2023/01/28 11:20:30;;;;;;;;;;;26.20;99.90;;;;;;5087590;28;19912;-67
2023/01/28 11:22:57;;;;;;;;;;;26.20;99.90;;;;;;5089564;28;19922;-66
2023/01/28 11:25:34;;;;;;;;;;;26.20;99.90;;;;;;5090259;28;19924;-68
2023/01/28 11:28:02;;;;;;;;;;;26.20;99.90;;;;;;5090102;28;20323;-68
2023/01/28 11:30:32;;;;;;;;;;;26.10;99.90;;;;;;5089021;28;19965;-66
2023/01/28 11:33:20;;;;;;;;;;;26.10;99.90;;;;;;5092186;28;20353;-68
2023/01/28 11:35:54;;;;;;;;;;;26.10;99.90;;;;;;5091850;28;20006;-67
2023/01/28 11:38:22;;;;;;;;;;;26.00;99.90;;;;;;5093770;28;19908;-65
2023/01/28 11:40:52;;;;;;;;;;;26.00;99.90;;;;;;5091240;28;20521;-69
2023/01/28 11:43:24;;;;;;;;;;;26.10;99.90;;;;;;5095265;28;19919;-66
2023/01/28 11:45:53;;;;;;;;;;;26.00;99.90;;;;;;5095398;28;19965;-67
2023/01/28 11:48:35;;;;;;;;;;;26.00;99.90;;;;;;5094839;28;20015;-68
2023/01/28 11:51:17;;;;;;;;;;;26.00;99.90;;;;;;5089320;28;19924;-66
2023/01/28 11:53:46;;;;;;;;;;;26.00;99.90;;;;;;5094035;28;19912;-66
2023/01/28 11:56:13;;;;;;;;;;;26.00;99.90;;;;;;5094095;28;19916;-67
2023/01/28 11:58:58;;;;;;;;;;;26.00;99.90;;;;;;5094504;28;20007;-67
2023/01/28 12:01:24;;;;;;;;;;;26.00;99.90;;;;;;5091796;28;19912;-65
2023/01/28 12:03:51;;;;;;;;;;;26.00;99.90;;;;;;5094947;28;19954;-66
2023/01/28 12:06:21;;;;;;;;;;;25.90;99.90;;;;;;5093719;28;20546;-67
2023/01/28 12:08:55;;;;;;;;;;;25.90;99.90;;;;;;5094318;28;19909;-66
2023/01/28 12:14:24;;;;;;;;;;;25.90;99.90;;;;;;5094443;28;19916;-67
2023/01/28 12:16:56;;;;;;;;;;;25.90;99.90;;;;;;5095029;28;19912;-68
2023/01/28 12:19:23;;;;;;;;;;;25.90;99.90;;;;;;5088995;28;19943;-68
2023/01/28 12:21:53;;;;;;;;;;;25.80;99.90;;;;;;5092732;28;19927;-68
2023/01/28 12:24:25;;;;;;;;;;;25.80;99.90;;;;;;5094221;28;20416;-67
2023/01/28 12:26:57;;;;;;;;;;;25.70;99.90;;;;;;5094288;28;20011;-68
2023/01/28 12:29:30;;;;;;;;;;;25.70;99.90;;;;;;5090008;28;19916;-67
2023/01/28 12:32:00;;;;;;;;;;;25.70;99.90;;;;;;5094169;28;19912;-66
2023/01/28 12:34:45;;;;;;;;;;;25.80;99.90;;;;;;5094489;28;19912;-69
2023/01/28 12:37:21;;;;;;;;;;;25.80;99.90;;;;;;5093669;28;19916;-67
2023/01/28 12:40:00;;;;;;;;;;;25.70;99.90;;;;;;5087297;28;19908;-67
2023/01/28 12:42:41;;;;;;;;;;;25.70;99.90;;;;;;5093509;28;19908;-65
2023/01/28 12:45:17;;;;;;;;;;;25.60;99.90;;;;;;5093852;28;19924;-66
2023/01/28 12:47:55;;;;;;;;;;;25.60;99.90;;;;;;5093704;28;20356;-69
2023/01/28 12:50:44;;;;;;;;;;;25.60;99.90;;;;;;5086525;28;19919;-68
2023/01/28 12:53:25;;;;;;;;;;;25.60;99.90;;;;;;5093644;28;19919;-69
2023/01/28 12:56:24;;;;;;;;;;;25.50;99.90;;;;;;5093697;28;19918;-67
2023/01/28 12:59:01;;;;;;;;;;;25.50;99.90;;;;;;5080760;28;20268;-66
2023/01/28 13:01:36;;;;;;;;;;;25.60;99.90;;;;;;5086963;28;19916;-66
2023/01/28 13:04:10;;;;;;;;;;;25.50;99.90;;;;;;5093533;28;19908;-68
2023/01/28 13:06:39;;;;;;;;;;;25.50;99.90;;;;;;5093334;28;19920;-66
2023/01/28 13:09:19;;;;;;;;;;;25.60;99.90;;;;;;5091007;28;19951;-67
2023/01/28 13:11:47;;;;;;;;;;;25.50;99.90;;;;;;5088843;28;19912;-65
2023/01/28 13:14:14;;;;;;;;;;;25.50;99.90;;;;;;5093424;28;19930;-65
2023/01/28 13:16:41;;;;;;;;;;;25.50;99.90;;;;;;5093424;28;19921;-68
2023/01/28 13:19:21;;;;;;;;;;;25.50;99.90;;;;;;5090228;28;19980;-68
2023/01/28 13:21:48;;;;;;;;;;;25.50;99.90;;;;;;5088855;28;19957;-69
2023/01/28 13:24:15;;;;;;;;;;;25.50;99.90;;;;;;5092944;28;19908;-68
2023/01/28 13:26:44;;;;;;;;;;;25.60;99.90;;;;;;5093017;28;19938;-67
2023/01/28 13:29:14;;;;;;;;;;;25.50;99.90;;;;;;5093132;28;20420;-67
2023/01/28 13:31:45;;;;;;;;;;;25.50;99.90;;;;;;5098965;28;19916;-66
2023/01/28 13:34:28;;;;;;;;;;;25.40;99.90;;;;;;5093141;28;20365;-67
2023/01/28 13:36:56;;;;;;;;;;;25.50;99.90;;;;;;5097586;28;19927;-67
2023/01/28 13:39:24;;;;;;;;;;;25.50;99.90;;;;;;5093699;28;19908;-68
2023/01/28 13:41:52;;;;;;;;;;;25.50;99.90;;;;;;5093636;28;19916;-66
2023/01/28 13:44:24;;;;;;;;;;;25.40;99.90;;;;;;5093229;28;19931;-68
2023/01/28 13:46:55;;;;;;;;;;;25.40;99.90;;;;;;5093184;28;20377;-67
2023/01/28 13:49:28;;;;;;;;;;;25.50;99.90;;;;;;5093198;28;19993;-66
2023/01/28 13:52:00;;;;;;;;;;;25.50;99.90;;;;;;5092755;28;19915;-66
2023/01/28 13:54:28;;;;;;;;;;;25.50;99.90;;;;;;5092066;28;19908;-67
2023/01/28 13:57:05;;;;;;;;;;;25.50;99.90;;;;;;5093437;28;19915;-68
2023/01/28 13:59:35;;;;;;;;;;;25.50;99.90;;;;;;5093187;28;19908;-70
2023/01/28 14:02:19;;;;;;;;;;;25.50;99.90;;;;;;5093305;28;19908;-70
2023/01/28 14:04:49;;;;;;;;;;;25.50;99.90;;;;;;5093279;28;19939;-68
2023/01/28 14:07:18;;;;;;;;;;;25.50;99.90;;;;;;5093015;28;20008;-68
2023/01/28 14:10:03;;;;;;;;;;;25.40;99.90;;;;;;5092802;28;19912;-67
2023/01/28 14:12:39;;;;;;;;;;;25.50;99.90;;;;;;5092958;28;19998;-68
2023/01/28 14:15:23;;;;;;;;;;;25.40;99.90;;;;;;5092660;28;19912;-68
2023/01/28 14:17:57;;;;;;;;;;;25.30;99.90;;;;;;5092703;28;19911;-67
2023/01/28 14:20:38;;;;;;;;;;;25.30;99.90;;;;;;5092992;28;19908;-66
2023/01/28 14:23:06;;;;;;;;;;;25.30;99.90;;;;;;5092501;28;19963;-66
2023/01/28 14:25:33;;;;;;;;;;;25.30;99.90;;;;;;5092574;28;20007;-67
2023/01/28 14:28:00;;;;;;;;;;;25.30;99.90;;;;;;5092553;28;19916;-67
2023/01/28 14:30:33;;;;;;;;;;;25.30;99.90;;;;;;5092618;28;19915;-66
2023/01/28 14:32:59;;;;;;;;;;;25.30;99.90;;;;;;5092895;28;19955;-69
2023/01/28 14:35:33;;;;;;;;;;;25.30;99.90;;;;;;5092596;28;20290;-66
2023/01/28 14:38:00;;;;;;;;;;;25.20;99.90;;;;;;5092977;28;19944;-66
2023/01/28 14:40:28;;;;;;;;;;;25.20;99.90;;;;;;5093464;28;19912;-68
2023/01/28 14:42:55;;;;;;;;;;;25.20;99.90;;;;;;5093651;28;19994;-66
2023/01/28 14:45:29;;;;;;;;;;;25.20;99.90;;;;;;5093006;28;19912;-67
2023/01/28 14:48:08;;;;;;;;;;;25.10;99.90;;;;;;5092712;28;19908;-69
2023/01/28 14:50:34;;;;;;;;;;;25.20;99.90;;;;;;5092812;28;19908;-69
2023/01/28 14:53:01;;;;;;;;;;;25.30;99.90;;;;;;5092425;28;19908;-67
2023/01/28 14:55:43;;;;;;;;;;;25.20;99.90;;;;;;5092005;28;19970;-67
2023/01/28 14:58:16;;;;;;;;;;;25.30;99.90;;;;;;5092484;28;20384;-66